createdAt,value
2019-05-21T00:00:48.750Z,7.67
2019-05-21T00:03:17.742Z,7.57
2019-05-21T00:05:46.690Z,8.40
2019-05-21T00:08:15.674Z,6.43
2019-05-21T00:10:44.691Z,5.90
2019-05-21T00:13:13.683Z,5.97
2019-05-21T00:15:42.672Z,7.40
2019-05-21T00:18:11.662Z,7.27
2019-05-21T00:20:40.726Z,7.40
2019-05-21T00:23:09.739Z,6.53
2019-05-21T00:25:38.687Z,6.97
2019-05-21T00:28:20.609Z,6.57
2019-05-21T00:31:07.363Z,7.27
2019-05-21T00:33:53.687Z,6.30
2019-05-21T00:36:41.538Z,5.17
2019-05-21T00:39:28.007Z,4.87
2019-05-21T00:42:02.324Z,5.70
2019-05-21T00:44:32.743Z,5.90
2019-05-21T00:47:01.874Z,6.20
2019-05-21T00:49:30.848Z,6.00
2019-05-21T00:52:08.167Z,5.83
2019-05-21T00:54:30.419Z,6.00
2019-05-21T00:56:59.359Z,6.30
2019-05-21T00:59:28.334Z,6.50
2019-05-21T01:01:57.292Z,6.57
2019-05-21T01:04:26.285Z,6.70
2019-05-21T01:06:55.323Z,6.07
2019-05-21T01:09:24.297Z,6.80
2019-05-21T01:11:53.322Z,7.00
2019-05-21T01:14:22.267Z,7.30
2019-05-21T01:16:51.405Z,7.37
2019-05-21T01:19:20.387Z,6.80
2019-05-21T01:21:49.405Z,8.00
2019-05-21T01:24:18.355Z,6.93
2019-05-21T01:26:47.348Z,6.60
2019-05-21T01:29:16.363Z,5.87
2019-05-21T01:31:45.297Z,6.03
2019-05-21T01:34:14.280Z,6.00
2019-05-21T01:36:43.234Z,5.97
2019-05-21T01:39:12.228Z,5.80
2019-05-21T01:41:41.165Z,5.70
2019-05-21T01:44:10.163Z,5.63
2019-05-21T01:46:39.113Z,5.50
2019-05-21T01:49:08.070Z,5.07
2019-05-21T01:51:37.058Z,5.70
2019-05-21T01:54:06.053Z,5.17
2019-05-21T01:56:35.053Z,5.00
2019-05-21T01:59:04.432Z,4.87
2019-05-21T02:01:33.421Z,5.30
2019-05-21T02:04:02.367Z,5.80
2019-05-21T02:06:31.574Z,6.07
2019-05-21T02:09:00.541Z,5.80
2019-05-21T02:11:29.479Z,6.43
2019-05-21T02:13:58.467Z,6.30
2019-05-21T02:16:27.427Z,6.57
2019-05-21T02:18:56.381Z,6.23
2019-05-21T02:21:25.367Z,7.00
2019-05-21T02:23:54.307Z,6.70
2019-05-21T02:26:23.312Z,6.10
2019-05-21T02:28:52.254Z,7.20
2019-05-21T02:31:21.246Z,8.47
2019-05-21T02:33:50.186Z,8.33
2019-05-21T02:36:19.189Z,8.80
2019-05-21T02:38:48.141Z,8.93
2019-05-21T02:41:17.135Z,9.50
2019-05-21T02:43:46.104Z,9.87
2019-05-21T02:46:15.046Z,9.37
2019-05-21T02:48:43.996Z,8.20
2019-05-21T02:51:13.011Z,9.60
2019-05-21T02:53:41.954Z,9.33
2019-05-21T02:56:11.039Z,9.13
2019-05-21T02:58:39.998Z,9.43
2019-05-21T03:01:36.979Z,9.00
2019-05-21T03:04:06.084Z,8.67
2019-05-21T03:06:35.029Z,8.67
2019-05-21T03:09:05.192Z,8.57
2019-05-21T03:11:34.263Z,8.40
2019-05-21T03:14:03.287Z,8.93
2019-05-21T03:16:32.268Z,9.13
2019-05-21T03:19:01.217Z,7.50
2019-05-21T03:21:30.219Z,6.93
2019-05-21T03:23:59.274Z,7.03
2019-05-21T03:26:28.266Z,8.17
2019-05-21T03:28:57.208Z,7.80
2019-05-21T03:31:26.164Z,7.77
2019-05-21T03:33:55.123Z,7.83
2019-05-21T03:36:33.167Z,8.07
2019-05-21T03:38:54.707Z,7.67
2019-05-21T03:41:23.712Z,8.30
2019-05-21T03:43:52.670Z,8.73
2019-05-21T03:46:21.611Z,8.50
2019-05-21T03:48:50.602Z,8.10
2019-05-21T03:51:19.624Z,7.17
2019-05-21T03:53:48.591Z,6.93
2019-05-21T03:56:17.519Z,7.07
2019-05-21T03:58:46.501Z,6.63
2019-05-21T04:01:15.653Z,7.20
2019-05-21T04:03:44.583Z,6.77
2019-05-21T04:06:13.599Z,7.23
2019-05-21T04:08:42.601Z,7.30
2019-05-21T04:11:11.621Z,7.13
2019-05-21T04:13:40.603Z,6.80
2019-05-21T04:16:34.368Z,6.60
2019-05-21T04:19:19.364Z,6.20
2019-05-21T04:21:48.356Z,6.33
2019-05-21T04:24:17.297Z,5.80
2019-05-21T04:26:46.291Z,6.60
2019-05-21T04:29:15.295Z,6.30
2019-05-21T04:31:44.292Z,6.23
2019-05-21T04:34:13.276Z,6.43
2019-05-21T04:36:42.238Z,6.87
2019-05-21T04:39:11.271Z,7.13
2019-05-21T04:41:40.299Z,6.40
2019-05-21T04:44:09.287Z,5.97
2019-05-21T04:46:38.449Z,6.10
2019-05-21T04:49:07.388Z,7.40
2019-05-21T04:51:36.377Z,5.73
2019-05-21T04:54:05.431Z,5.43
2019-05-21T04:56:34.439Z,5.30
2019-05-21T04:59:03.447Z,8.17
2019-05-21T05:01:32.404Z,9.03
2019-05-21T05:04:01.448Z,8.13
2019-05-21T05:06:30.487Z,8.03
2019-05-21T05:08:59.437Z,8.73
2019-05-21T05:11:28.439Z,7.00
2019-05-21T05:13:57.451Z,8.17
2019-05-21T05:16:26.498Z,8.13
2019-05-21T05:18:55.472Z,9.00
2019-05-21T05:21:24.471Z,9.20
2019-05-21T05:23:53.492Z,9.03
2019-05-21T05:26:22.495Z,10.27
2019-05-21T05:28:54.262Z,10.23
2019-05-21T05:31:23.274Z,9.20
2019-05-21T05:33:52.240Z,9.00
2019-05-21T05:36:21.242Z,8.10
2019-05-21T05:38:50.347Z,8.10
2019-05-21T05:41:19.457Z,8.03
2019-05-21T05:43:48.431Z,7.50
2019-05-21T05:46:17.437Z,7.10
2019-05-21T05:49:01.186Z,6.63
2019-05-21T05:51:28.683Z,6.03
2019-05-21T05:53:57.995Z,6.40
2019-05-21T05:56:27.559Z,5.17
2019-05-21T05:58:56.652Z,5.30
2019-05-21T06:01:26.485Z,4.63
2019-05-21T06:03:55.457Z,4.20
2019-05-21T06:06:24.415Z,3.90
2019-05-21T06:08:53.467Z,3.97
2019-05-21T06:11:22.446Z,4.63
2019-05-21T06:13:51.480Z,3.60
2019-05-21T06:16:20.526Z,4.00
2019-05-21T06:18:49.599Z,3.53
2019-05-21T06:21:18.599Z,4.00
2019-05-21T06:23:47.622Z,4.00
2019-05-21T06:26:16.614Z,4.27
2019-05-21T06:28:45.564Z,4.27
2019-05-21T06:31:14.615Z,4.53
2019-05-21T06:33:43.571Z,4.20
2019-05-21T06:36:12.598Z,5.27
2019-05-21T06:38:41.577Z,6.17
2019-05-21T06:41:10.635Z,5.43
2019-05-21T06:43:39.603Z,5.30
2019-05-21T06:46:08.712Z,5.50
2019-05-21T06:48:37.706Z,5.43
2019-05-21T06:51:06.754Z,5.57
2019-05-21T06:53:35.719Z,5.83
2019-05-21T06:56:07.391Z,5.30
2019-05-21T06:58:35.555Z,6.20
2019-05-21T07:01:04.624Z,6.33
2019-05-21T07:03:33.720Z,5.87
2019-05-21T07:06:02.772Z,5.43
2019-05-21T07:08:35.032Z,4.97
2019-05-21T07:11:02.575Z,4.87
2019-05-21T07:13:31.691Z,5.27
2019-05-21T07:16:00.842Z,4.30
2019-05-21T07:18:29.839Z,5.50
2019-05-21T07:21:00.140Z,4.57
2019-05-21T07:23:29.346Z,4.60
2019-05-21T07:25:58.366Z,5.00
2019-05-21T07:28:27.341Z,4.33
2019-05-21T07:30:56.340Z,3.97
2019-05-21T07:33:25.338Z,4.10
2019-05-21T07:35:54.332Z,4.20
2019-05-21T07:38:23.333Z,4.17
2019-05-21T07:40:52.311Z,3.40
2019-05-21T07:43:21.258Z,3.93
2019-05-21T07:45:50.271Z,4.07
2019-05-21T07:48:19.228Z,4.10
2019-05-21T07:50:48.246Z,5.00
2019-05-21T07:53:17.174Z,4.37
2019-05-21T07:55:46.455Z,3.80
2019-05-21T07:58:15.427Z,3.60
2019-05-21T08:00:44.461Z,3.20
2019-05-21T08:03:13.418Z,2.93
2019-05-21T08:05:42.358Z,3.93
2019-05-21T08:08:11.343Z,4.30
2019-05-21T08:10:40.373Z,4.33
2019-05-21T08:13:09.338Z,4.00
2019-05-21T08:15:38.312Z,3.70
2019-05-21T08:18:07.359Z,3.90
2019-05-21T08:20:36.297Z,4.10
2019-05-21T08:23:05.322Z,4.40
2019-05-21T08:25:34.387Z,3.37
2019-05-21T08:28:03.523Z,3.30
2019-05-21T08:30:32.585Z,3.57
2019-05-21T08:33:01.566Z,3.03
2019-05-21T08:35:30.601Z,3.47
2019-05-21T08:37:59.671Z,3.73
2019-05-21T08:40:28.657Z,3.23
2019-05-21T08:42:57.693Z,3.37
2019-05-21T08:45:26.675Z,3.07
2019-05-21T08:47:55.627Z,3.20
2019-05-21T08:50:24.647Z,3.30
2019-05-21T08:52:53.624Z,3.23
2019-05-21T08:55:22.703Z,3.20
2019-05-21T08:58:06.634Z,3.27
2019-05-21T09:00:22.592Z,3.37
2019-05-21T09:02:51.646Z,3.53
2019-05-21T09:05:20.717Z,3.47
2019-05-21T09:07:53.259Z,3.57
2019-05-21T09:10:20.495Z,3.57
2019-05-21T09:12:49.451Z,3.57
2019-05-21T09:15:18.765Z,3.37
2019-05-21T09:17:47.711Z,4.20
2019-05-21T09:20:17.435Z,4.40
2019-05-21T09:22:46.490Z,3.90
2019-05-21T09:25:15.523Z,4.40
2019-05-21T09:27:44.640Z,3.90
2019-05-21T09:30:15.315Z,4.47
2019-05-21T09:32:44.343Z,4.70
2019-05-21T09:35:13.528Z,4.57
2019-05-21T09:37:42.472Z,4.90
2019-05-21T09:40:11.670Z,4.90
2019-05-21T09:42:40.731Z,4.73
2019-05-21T09:45:10.031Z,4.30
2019-05-21T09:47:39.130Z,4.40
2019-05-21T09:50:09.445Z,4.60
2019-05-21T09:52:38.480Z,4.53
2019-05-21T09:55:07.692Z,4.10
2019-05-21T09:57:49.615Z,4.00
2019-05-21T10:00:49.864Z,4.30
2019-05-21T10:03:20.422Z,4.00
2019-05-21T10:05:49.381Z,3.70
2019-05-21T10:08:18.386Z,3.80
2019-05-21T10:10:47.353Z,3.80
2019-05-21T10:13:16.359Z,3.60
2019-05-21T10:15:45.319Z,3.20
2019-05-21T10:18:14.320Z,3.53
2019-05-21T10:20:43.279Z,3.00
2019-05-21T10:23:12.308Z,3.30
2019-05-21T10:25:41.259Z,3.90
2019-05-21T10:28:10.247Z,4.43
2019-05-21T10:30:39.242Z,3.40
2019-05-21T10:33:08.255Z,3.30
2019-05-21T10:35:39.995Z,3.07
2019-05-21T10:38:08.950Z,3.10
2019-05-21T10:40:37.959Z,3.03
2019-05-21T10:43:07.031Z,3.23
2019-05-21T10:45:36.129Z,3.50
2019-05-21T10:48:05.178Z,3.33
2019-05-21T10:50:34.174Z,3.00
2019-05-21T10:53:03.120Z,3.20
2019-05-21T10:55:32.135Z,3.07
2019-05-21T10:58:01.235Z,2.93
2019-05-21T11:00:30.297Z,3.10
2019-05-21T11:03:33.193Z,3.70
2019-05-21T11:06:10.107Z,3.57
2019-05-21T11:08:32.984Z,2.80
2019-05-21T11:11:01.974Z,2.70
2019-05-21T11:13:30.975Z,2.83
2019-05-21T11:15:59.925Z,3.10
2019-05-21T11:18:28.894Z,2.97
2019-05-21T11:20:57.956Z,2.53
2019-05-21T11:23:26.967Z,3.00
2019-05-21T11:25:55.983Z,3.00
2019-05-21T11:28:25.112Z,3.00
2019-05-21T11:30:54.156Z,4.43
2019-05-21T11:33:23.107Z,3.30
2019-05-21T11:35:52.227Z,3.23
2019-05-21T11:38:21.222Z,5.90
2019-05-21T11:40:51.166Z,6.10
2019-05-21T11:43:20.591Z,6.40
2019-05-21T11:45:49.611Z,4.70
2019-05-21T11:48:19.488Z,4.20
2019-05-21T11:50:48.430Z,4.37
2019-05-21T11:53:17.599Z,4.47
2019-05-21T11:55:46.570Z,3.33
2019-05-21T11:58:15.620Z,3.70
2019-05-21T12:00:45.014Z,3.40
2019-05-21T12:03:14.367Z,3.20
2019-05-21T12:05:43.375Z,3.60
2019-05-21T12:08:12.471Z,2.90
2019-05-21T12:10:41.460Z,2.87
2019-05-21T12:13:10.486Z,3.00
2019-05-21T12:15:39.473Z,3.63
2019-05-21T12:18:08.487Z,2.97
2019-05-21T12:20:37.705Z,3.03
2019-05-21T12:23:06.895Z,2.50
2019-05-21T12:25:35.895Z,3.03
2019-05-21T12:28:05.000Z,2.80
2019-05-21T12:30:34.272Z,2.90
2019-05-21T12:33:03.280Z,2.87
2019-05-21T12:35:32.247Z,3.00
2019-05-21T12:38:01.235Z,2.97
2019-05-21T12:40:30.219Z,2.70
2019-05-21T12:42:59.327Z,2.93
2019-05-21T12:45:28.306Z,2.80
2019-05-21T12:47:57.408Z,3.07
2019-05-21T12:50:26.611Z,3.17
2019-05-21T12:52:55.698Z,2.77
2019-05-21T12:55:24.717Z,3.10
2019-05-21T12:57:53.821Z,3.60
2019-05-21T13:00:23.002Z,3.17
2019-05-21T13:02:52.061Z,3.67
2019-05-21T13:05:21.011Z,2.97
2019-05-21T13:07:50.020Z,2.80
2019-05-21T13:10:19.165Z,4.83
2019-05-21T13:12:48.193Z,2.80
2019-05-21T13:15:17.421Z,3.20
2019-05-21T13:17:47.598Z,3.37
2019-05-21T13:20:17.129Z,3.90
2019-05-21T13:22:46.184Z,3.07
2019-05-21T13:25:15.302Z,2.73
2019-05-21T13:27:44.252Z,2.93
2019-05-21T13:30:13.483Z,2.93
2019-05-21T13:32:43.886Z,2.73
2019-05-21T13:35:13.166Z,3.30
2019-05-21T13:37:42.232Z,3.50
2019-05-21T13:40:11.638Z,3.30
2019-05-21T13:42:40.950Z,3.40
2019-05-21T13:45:10.365Z,3.23
2019-05-21T13:47:39.382Z,3.17
2019-05-21T13:50:08.588Z,2.87
2019-05-21T13:52:37.685Z,2.87
2019-05-21T13:55:07.945Z,3.43
2019-05-21T13:57:36.874Z,3.07
2019-05-21T14:00:07.719Z,3.03
2019-05-21T14:02:36.685Z,2.87
2019-05-21T14:05:05.849Z,3.00
2019-05-21T14:07:34.983Z,3.33
2019-05-21T14:10:14.323Z,3.00
2019-05-21T14:12:34.594Z,3.43
2019-05-21T14:15:03.990Z,3.20
2019-05-21T14:17:38.776Z,3.13
2019-05-21T14:20:07.991Z,3.00
2019-05-21T14:22:36.970Z,2.73
2019-05-21T14:25:05.984Z,2.70
2019-05-21T14:27:44.478Z,3.30
2019-05-21T14:30:06.436Z,3.57
2019-05-21T14:32:35.443Z,3.50
2019-05-21T14:35:04.680Z,3.20
2019-05-21T14:37:33.705Z,4.27
2019-05-21T14:40:03.010Z,3.30
2019-05-21T14:42:31.967Z,3.13
2019-05-21T14:45:01.016Z,3.13
2019-05-21T14:47:30.019Z,3.47
2019-05-21T14:49:58.971Z,3.20
2019-05-21T14:52:28.017Z,3.10
2019-05-21T14:54:57.035Z,2.90
2019-05-21T14:57:25.978Z,3.07
2019-05-21T14:59:54.979Z,3.50
2019-05-21T15:02:24.017Z,2.90
2019-05-21T15:04:53.071Z,3.13
2019-05-21T15:07:22.195Z,3.90
2019-05-21T15:09:53.599Z,3.27
2019-05-21T15:12:22.093Z,2.73
2019-05-21T15:14:51.126Z,4.57
2019-05-21T15:17:20.079Z,2.93
2019-05-21T15:19:52.441Z,2.73
2019-05-21T15:22:21.491Z,2.60
2019-05-21T15:24:50.811Z,2.87
2019-05-21T15:27:19.779Z,3.07
2019-05-21T15:29:48.787Z,3.00
2019-05-21T15:32:17.785Z,2.53
2019-05-21T15:34:46.742Z,2.80
2019-05-21T15:37:15.762Z,2.90
2019-05-21T15:39:44.711Z,2.50
2019-05-21T15:42:13.675Z,2.60
2019-05-21T15:44:42.980Z,2.97
2019-05-21T15:47:12.079Z,3.27
2019-05-21T15:49:41.136Z,3.30
2019-05-21T15:52:10.529Z,3.40
2019-05-21T15:54:39.487Z,2.60
2019-05-21T15:57:10.598Z,2.90
2019-05-21T15:59:39.054Z,2.70
2019-05-21T16:02:08.247Z,2.40
2019-05-21T16:04:37.191Z,2.90
2019-05-21T16:07:06.198Z,2.90
2019-05-21T16:09:35.198Z,2.10
2019-05-21T16:12:04.272Z,2.00
2019-05-21T16:14:33.220Z,1.63
2019-05-21T16:17:02.208Z,1.60
2019-05-21T16:19:31.255Z,1.37
2019-05-21T16:22:00.253Z,1.63
2019-05-21T16:24:29.200Z,1.60
2019-05-21T16:26:58.191Z,1.63
2019-05-21T16:29:27.187Z,1.27
2019-05-21T16:31:56.166Z,1.60
2019-05-21T16:34:25.253Z,1.57
2019-05-21T16:36:54.341Z,1.70
2019-05-21T16:39:25.432Z,1.40
2019-05-21T16:41:54.448Z,1.37
2019-05-21T16:44:23.439Z,1.30
2019-05-21T16:46:52.452Z,1.10
2019-05-21T16:49:21.594Z,1.40
2019-05-21T16:51:50.588Z,1.50
2019-05-21T16:54:19.652Z,1.50
2019-05-21T16:56:48.762Z,1.73
2019-05-21T16:59:17.784Z,1.57
2019-05-21T17:01:46.719Z,1.93
2019-05-21T17:04:15.715Z,1.50
2019-05-21T17:06:44.788Z,1.80
2019-05-21T17:09:13.906Z,1.73
2019-05-21T17:11:42.992Z,1.63
2019-05-21T17:14:11.987Z,1.77
2019-05-21T17:16:40.934Z,1.53
2019-05-21T17:19:09.923Z,1.23
2019-05-21T17:21:38.872Z,1.70
2019-05-21T17:24:07.878Z,1.90
2019-05-21T17:26:36.836Z,1.30
2019-05-21T17:29:05.831Z,1.57
2019-05-21T17:31:34.786Z,1.27
2019-05-21T17:34:03.787Z,1.50
2019-05-21T17:36:32.783Z,1.40
2019-05-21T17:39:01.785Z,1.43
2019-05-21T17:41:30.737Z,1.70
2019-05-21T17:43:59.680Z,1.63
2019-05-21T17:46:28.764Z,1.37
2019-05-21T17:48:57.749Z,1.77
2019-05-21T17:51:26.726Z,1.93
2019-05-21T17:53:55.683Z,2.10
2019-05-21T17:56:24.701Z,1.83
2019-05-21T17:58:53.678Z,1.80
2019-05-21T18:01:22.822Z,2.00
2019-05-21T18:03:52.183Z,2.50
2019-05-21T18:06:21.515Z,2.03
2019-05-21T18:08:50.434Z,2.63
2019-05-21T18:11:19.531Z,2.33
2019-05-21T18:13:48.535Z,2.27
2019-05-21T18:16:18.190Z,2.10
2019-05-21T18:18:47.174Z,2.00
2019-05-21T18:21:16.369Z,1.37
2019-05-21T18:23:45.551Z,1.83
2019-05-21T18:26:14.597Z,1.33
2019-05-21T18:28:43.806Z,1.60
2019-05-21T18:31:13.255Z,1.70
2019-05-21T18:33:42.381Z,2.03
2019-05-21T18:36:11.338Z,1.70
2019-05-21T18:38:40.331Z,1.47
2019-05-21T18:41:09.325Z,1.50
2019-05-21T18:43:38.427Z,2.33
2019-05-21T18:46:07.431Z,1.80
2019-05-21T18:48:36.522Z,1.77
2019-05-21T18:51:05.575Z,1.60
2019-05-21T18:53:34.671Z,1.87
2019-05-21T18:56:03.717Z,1.60
2019-05-21T18:58:32.809Z,1.70
2019-05-21T19:01:01.816Z,1.57
2019-05-21T19:03:30.983Z,2.20
2019-05-21T19:05:59.936Z,2.80
2019-05-21T19:08:28.931Z,2.50
2019-05-21T19:10:57.923Z,2.30
2019-05-21T19:13:26.922Z,2.07
2019-05-21T19:15:55.875Z,2.00
2019-05-21T19:18:24.931Z,2.43
2019-05-21T19:20:53.892Z,2.00
2019-05-21T19:23:22.838Z,1.70
2019-05-21T19:25:51.851Z,2.00
2019-05-21T19:28:20.819Z,2.27
2019-05-21T19:30:49.835Z,1.97
2019-05-21T19:33:18.836Z,1.67
2019-05-21T19:35:47.999Z,1.90
2019-05-21T19:38:17.494Z,2.10
2019-05-21T19:40:46.507Z,2.40
2019-05-21T19:43:15.579Z,1.80
2019-05-21T19:45:44.587Z,1.60
2019-05-21T19:48:13.550Z,1.83
2019-05-21T19:50:42.660Z,1.90
2019-05-21T19:53:11.668Z,1.30
2019-05-21T19:55:41.534Z,1.77
2019-05-21T19:58:10.575Z,1.53
2019-05-21T20:00:44.140Z,1.47
2019-05-21T20:03:13.346Z,1.50
2019-05-21T20:05:42.685Z,1.50
2019-05-21T20:08:11.656Z,1.43
2019-05-21T20:10:40.623Z,1.40
2019-05-21T20:13:09.727Z,1.40
2019-05-21T20:15:39.194Z,1.47
2019-05-21T20:18:09.342Z,1.60
2019-05-21T20:20:38.722Z,1.57
2019-05-21T20:23:10.100Z,1.40
2019-05-21T20:25:55.053Z,1.63
2019-05-21T20:28:10.805Z,1.80
2019-05-21T20:30:40.035Z,1.67
2019-05-21T20:33:09.588Z,1.90
2019-05-21T20:35:39.148Z,1.80
2019-05-21T20:38:09.967Z,1.70
2019-05-21T20:40:39.443Z,2.17
2019-05-21T20:43:09.023Z,2.33
2019-05-21T20:45:41.507Z,2.10
2019-05-21T20:48:11.181Z,2.30
2019-05-21T20:50:40.187Z,2.00
2019-05-21T20:53:09.431Z,2.37
2019-05-21T20:55:39.150Z,2.17
2019-05-21T20:58:08.278Z,2.30
2019-05-21T21:00:43.361Z,2.17
2019-05-21T21:03:13.590Z,2.03
2019-05-21T21:05:43.087Z,2.20
2019-05-21T21:08:12.444Z,2.00
2019-05-21T21:10:41.447Z,2.47
2019-05-21T21:13:11.474Z,2.03
2019-05-21T21:15:40.623Z,2.40
2019-05-21T21:18:09.755Z,2.30
2019-05-21T21:20:38.809Z,5.00
2019-05-21T21:23:07.812Z,6.93
2019-05-21T21:25:36.811Z,6.90
2019-05-21T21:28:06.304Z,5.50
2019-05-21T21:30:36.381Z,6.43
2019-05-21T21:33:05.452Z,6.93
2019-05-21T21:35:34.596Z,6.30
2019-05-21T21:38:05.054Z,5.10
2019-05-21T21:40:34.640Z,4.83
2019-05-21T21:43:03.588Z,6.90
2019-05-21T21:45:32.987Z,7.67
2019-05-21T21:48:01.994Z,8.27
2019-05-21T21:50:31.520Z,9.57
2019-05-21T21:53:00.631Z,11.23
2019-05-21T21:55:31.946Z,10.53
2019-05-21T21:58:00.244Z,8.60
2019-05-21T22:00:39.577Z,9.23
2019-05-21T22:03:09.530Z,7.83
2019-05-21T22:05:38.979Z,8.13
2019-05-21T22:08:08.185Z,7.30
2019-05-21T22:10:37.168Z,6.67
2019-05-21T22:13:06.358Z,6.23
2019-05-21T22:15:35.739Z,5.07
2019-05-21T22:18:05.326Z,4.50
2019-05-21T22:20:35.069Z,4.17
2019-05-21T22:23:04.535Z,3.57
2019-05-21T22:25:33.727Z,3.10
2019-05-21T22:28:02.798Z,3.90
2019-05-21T22:30:32.334Z,3.90
2019-05-21T22:33:01.414Z,4.70
2019-05-21T22:35:30.491Z,4.90
2019-05-21T22:37:59.532Z,4.47
2019-05-21T22:40:28.467Z,4.40
2019-05-21T22:42:57.437Z,3.87
2019-05-21T22:45:26.419Z,3.67
2019-05-21T22:47:55.764Z,3.87
2019-05-21T22:50:25.761Z,4.73
2019-05-21T22:52:54.818Z,4.10
2019-05-21T22:55:23.814Z,4.37
2019-05-21T22:57:52.771Z,4.63
2019-05-21T23:00:22.083Z,9.00
2019-05-21T23:02:51.285Z,7.43
2019-05-21T23:05:23.013Z,5.27
2019-05-21T23:07:50.950Z,4.17
2019-05-21T23:10:20.762Z,3.17
2019-05-21T23:12:49.722Z,3.00
2019-05-21T23:15:25.001Z,3.13
2019-05-21T23:17:50.287Z,3.10
2019-05-21T23:20:19.676Z,3.27
2019-05-21T23:22:51.087Z,2.90
2019-05-21T23:25:20.078Z,3.00
2019-05-21T23:27:49.425Z,3.00
2019-05-21T23:30:20.208Z,3.63
2019-05-21T23:32:50.702Z,3.17
2019-05-21T23:35:20.335Z,3.17
2019-05-21T23:37:50.842Z,3.10
2019-05-21T23:40:21.451Z,3.20
2019-05-21T23:42:50.538Z,3.40
2019-05-21T23:45:19.593Z,2.90
2019-05-21T23:47:48.576Z,3.00
2019-05-21T23:50:18.377Z,3.17
2019-05-21T23:52:47.525Z,3.33
2019-05-21T23:55:16.521Z,3.30
2019-05-21T23:57:46.015Z,3.10
